sensor_id;sensor_type;location;lat;lon;timestamp;P1;durP1;ratioP1;P2;durP2;ratioP2
13743;SDS011;6943;52.368;9.966;2023-02-10T00:00:00;37.87;;;22.27;;
13743;SDS011;6943;52.368;9.966;2023-02-10T00:02:25;40.90;;;22.83;;
13743;SDS011;6943;52.368;9.966;2023-02-10T00:04:51;42.53;;;23.97;;
13743;SDS011;6943;52.368;9.966;2023-02-10T00:07:17;46.73;;;24.97;;
13743;SDS011;6943;52.368;9.966;2023-02-10T00:09:43;39.67;;;23.20;;
13743;SDS011;6943;52.368;9.966;2023-02-10T00:12:08;48.10;;;26.33;;
13743;SDS011;6943;52.368;9.966;2023-02-10T00:14:35;39.00;;;24.57;;
13743;SDS011;6943;52.368;9.966;2023-02-10T00:17:00;43.87;;;23.40;;
13743;SDS011;6943;52.368;9.966;2023-02-10T00:19:26;45.77;;;24.87;;
13743;SDS011;6943;52.368;9.966;2023-02-10T00:21:52;43.00;;;23.80;;
13743;SDS011;6943;52.368;9.966;2023-02-10T00:24:18;46.27;;;25.33;;
13743;SDS011;6943;52.368;9.966;2023-02-10T00:26:45;42.03;;;24.30;;
13743;SDS011;6943;52.368;9.966;2023-02-10T00:29:11;46.07;;;25.43;;
13743;SDS011;6943;52.368;9.966;2023-02-10T00:31:36;42.93;;;25.47;;
13743;SDS011;6943;52.368;9.966;2023-02-10T00:34:02;43.77;;;24.13;;
13743;SDS011;6943;52.368;9.966;2023-02-10T00:36:27;48.67;;;26.03;;
13743;SDS011;6943;52.368;9.966;2023-02-10T00:38:53;42.80;;;26.67;;
13743;SDS011;6943;52.368;9.966;2023-02-10T00:41:19;48.13;;;28.73;;
13743;SDS011;6943;52.368;9.966;2023-02-10T00:43:46;45.60;;;26.23;;
13743;SDS011;6943;52.368;9.966;2023-02-10T00:46:13;50.10;;;27.43;;
13743;SDS011;6943;52.368;9.966;2023-02-10T00:48:39;42.70;;;26.13;;
13743;SDS011;6943;52.368;9.966;2023-02-10T00:51:05;44.70;;;26.57;;
13743;SDS011;6943;52.368;9.966;2023-02-10T00:53:32;48.77;;;25.50;;
13743;SDS011;6943;52.368;9.966;2023-02-10T00:55:58;39.03;;;25.43;;
13743;SDS011;6943;52.368;9.966;2023-02-10T00:58:24;44.90;;;25.00;;
13743;SDS011;6943;52.368;9.966;2023-02-10T01:00:50;46.43;;;26.90;;
13743;SDS011;6943;52.368;9.966;2023-02-10T01:03:16;45.90;;;25.30;;
13743;SDS011;6943;52.368;9.966;2023-02-10T01:05:42;44.90;;;25.37;;
13743;SDS011;6943;52.368;9.966;2023-02-10T01:08:08;37.97;;;24.00;;
13743;SDS011;6943;52.368;9.966;2023-02-10T01:10:34;39.57;;;25.27;;
13743;SDS011;6943;52.368;9.966;2023-02-10T01:13:00;42.63;;;24.90;;
13743;SDS011;6943;52.368;9.966;2023-02-10T01:15:26;46.70;;;27.83;;
13743;SDS011;6943;52.368;9.966;2023-02-10T01:17:52;42.63;;;24.73;;
13743;SDS011;6943;52.368;9.966;2023-02-10T01:20:17;39.77;;;24.63;;
13743;SDS011;6943;52.368;9.966;2023-02-10T01:22:43;46.70;;;26.07;;
13743;SDS011;6943;52.368;9.966;2023-02-10T01:25:08;41.07;;;27.37;;
13743;SDS011;6943;52.368;9.966;2023-02-10T01:27:34;45.33;;;25.83;;
13743;SDS011;6943;52.368;9.966;2023-02-10T01:29:59;41.27;;;24.57;;
13743;SDS011;6943;52.368;9.966;2023-02-10T01:32:25;41.03;;;24.60;;
13743;SDS011;6943;52.368;9.966;2023-02-10T01:34:50;42.67;;;24.10;;
13743;SDS011;6943;52.368;9.966;2023-02-10T01:37:16;43.97;;;26.23;;
13743;SDS011;6943;52.368;9.966;2023-02-10T01:39:41;38.10;;;24.93;;
13743;SDS011;6943;52.368;9.966;2023-02-10T01:42:08;40.97;;;25.50;;
13743;SDS011;6943;52.368;9.966;2023-02-10T01:47:02;40.57;;;25.23;;
13743;SDS011;6943;52.368;9.966;2023-02-10T01:49:29;36.83;;;24.60;;
13743;SDS011;6943;52.368;9.966;2023-02-10T01:52:05;36.43;;;25.00;;
13743;SDS011;6943;52.368;9.966;2023-02-10T01:54:35;39.13;;;25.20;;
13743;SDS011;6943;52.368;9.966;2023-02-10T01:57:08;38.33;;;24.73;;
13743;SDS011;6943;52.368;9.966;2023-02-10T01:59:35;40.57;;;24.93;;
13743;SDS011;6943;52.368;9.966;2023-02-10T02:02:02;39.80;;;23.57;;
13743;SDS011;6943;52.368;9.966;2023-02-10T02:04:44;42.67;;;24.70;;
13743;SDS011;6943;52.368;9.966;2023-02-10T02:07:17;42.13;;;25.00;;
13743;SDS011;6943;52.368;9.966;2023-02-10T02:09:45;40.80;;;22.50;;
13743;SDS011;6943;52.368;9.966;2023-02-10T02:12:24;34.30;;;21.60;;
13743;SDS011;6943;52.368;9.966;2023-02-10T02:15:11;36.47;;;21.97;;
13743;SDS011;6943;52.368;9.966;2023-02-10T02:17:52;34.60;;;22.83;;
13743;SDS011;6943;52.368;9.966;2023-02-10T02:23:23;38.53;;;22.90;;
13743;SDS011;6943;52.368;9.966;2023-02-10T02:39:26;42.87;;;24.13;;
13743;SDS011;6943;52.368;9.966;2023-02-10T02:44:45;40.27;;;23.60;;
13743;SDS011;6943;52.368;9.966;2023-02-10T02:47:38;41.13;;;23.83;;
13743;SDS011;6943;52.368;9.966;2023-02-10T02:59:20;51.33;;;27.97;;
13743;SDS011;6943;52.368;9.966;2023-02-10T03:02:04;41.07;;;25.73;;
13743;SDS011;6943;52.368;9.966;2023-02-10T03:04:36;39.17;;;24.23;;
13743;SDS011;6943;52.368;9.966;2023-02-10T03:07:02;44.90;;;25.63;;
13743;SDS011;6943;52.368;9.966;2023-02-10T03:09:28;43.37;;;26.77;;
13743;SDS011;6943;52.368;9.966;2023-02-10T03:11:54;43.93;;;25.70;;
13743;SDS011;6943;52.368;9.966;2023-02-10T03:14:20;42.33;;;25.17;;
13743;SDS011;6943;52.368;9.966;2023-02-10T03:16:45;43.70;;;27.57;;
13743;SDS011;6943;52.368;9.966;2023-02-10T03:19:11;44.07;;;26.27;;
13743;SDS011;6943;52.368;9.966;2023-02-10T03:21:36;40.77;;;25.30;;
13743;SDS011;6943;52.368;9.966;2023-02-10T03:24:02;41.97;;;26.60;;
13743;SDS011;6943;52.368;9.966;2023-02-10T03:26:28;36.03;;;25.63;;
13743;SDS011;6943;52.368;9.966;2023-02-10T03:28:53;39.43;;;24.33;;
13743;SDS011;6943;52.368;9.966;2023-02-10T03:31:19;39.13;;;24.33;;
13743;SDS011;6943;52.368;9.966;2023-02-10T03:33:44;38.97;;;24.37;;
13743;SDS011;6943;52.368;9.966;2023-02-10T03:36:10;40.10;;;24.20;;
13743;SDS011;6943;52.368;9.966;2023-02-10T03:38:36;38.60;;;23.43;;
13743;SDS011;6943;52.368;9.966;2023-02-10T03:41:01;37.17;;;24.43;;
13743;SDS011;6943;52.368;9.966;2023-02-10T03:43:27;36.17;;;23.53;;
13743;SDS011;6943;52.368;9.966;2023-02-10T03:45:53;37.67;;;23.90;;
13743;SDS011;6943;52.368;9.966;2023-02-10T03:48:18;37.53;;;22.73;;
13743;SDS011;6943;52.368;9.966;2023-02-10T03:50:44;41.53;;;25.50;;
13743;SDS011;6943;52.368;9.966;2023-02-10T03:53:10;44.13;;;28.63;;
13743;SDS011;6943;52.368;9.966;2023-02-10T03:55:35;34.43;;;22.17;;
13743;SDS011;6943;52.368;9.966;2023-02-10T03:58:01;36.30;;;23.47;;
13743;SDS011;6943;52.368;9.966;2023-02-10T04:00:28;37.10;;;23.57;;
13743;SDS011;6943;52.368;9.966;2023-02-10T04:02:54;35.10;;;21.90;;
13743;SDS011;6943;52.368;9.966;2023-02-10T04:05:20;33.23;;;22.37;;
13743;SDS011;6943;52.368;9.966;2023-02-10T04:07:46;35.67;;;22.73;;
13743;SDS011;6943;52.368;9.966;2023-02-10T04:10:12;34.37;;;22.80;;
13743;SDS011;6943;52.368;9.966;2023-02-10T04:12:37;42.67;;;25.57;;
13743;SDS011;6943;52.368;9.966;2023-02-10T04:15:06;40.00;;;24.33;;
13743;SDS011;6943;52.368;9.966;2023-02-10T04:17:32;36.47;;;24.00;;
13743;SDS011;6943;52.368;9.966;2023-02-10T04:19:58;40.67;;;24.40;;
13743;SDS011;6943;52.368;9.966;2023-02-10T04:22:23;36.50;;;24.60;;
13743;SDS011;6943;52.368;9.966;2023-02-10T04:24:49;46.47;;;27.13;;
13743;SDS011;6943;52.368;9.966;2023-02-10T04:27:14;35.50;;;23.87;;
13743;SDS011;6943;52.368;9.966;2023-02-10T04:29:40;37.37;;;24.30;;
13743;SDS011;6943;52.368;9.966;2023-02-10T04:32:06;35.70;;;23.57;;
13743;SDS011;6943;52.368;9.966;2023-02-10T04:34:32;38.27;;;23.93;;
13743;SDS011;6943;52.368;9.966;2023-02-10T04:36:58;35.63;;;24.50;;
13743;SDS011;6943;52.368;9.966;2023-02-10T04:39:23;40.17;;;24.20;;
13743;SDS011;6943;52.368;9.966;2023-02-10T04:41:49;38.50;;;24.73;;
13743;SDS011;6943;52.368;9.966;2023-02-10T04:44:14;40.30;;;25.40;;
13743;SDS011;6943;52.368;9.966;2023-02-10T04:46:40;41.47;;;26.80;;
13743;SDS011;6943;52.368;9.966;2023-02-10T04:49:05;37.80;;;26.40;;
13743;SDS011;6943;52.368;9.966;2023-02-10T04:51:31;39.63;;;25.87;;
13743;SDS011;6943;52.368;9.966;2023-02-10T04:53:56;42.97;;;26.30;;
13743;SDS011;6943;52.368;9.966;2023-02-10T04:56:22;38.40;;;24.90;;
13743;SDS011;6943;52.368;9.966;2023-02-10T04:58:47;41.53;;;25.47;;
13743;SDS011;6943;52.368;9.966;2023-02-10T05:01:13;43.47;;;26.03;;
13743;SDS011;6943;52.368;9.966;2023-02-10T05:03:38;40.77;;;26.00;;
13743;SDS011;6943;52.368;9.966;2023-02-10T05:06:14;39.37;;;25.67;;
13743;SDS011;6943;52.368;9.966;2023-02-10T05:08:40;42.07;;;26.10;;
13743;SDS011;6943;52.368;9.966;2023-02-10T05:11:10;41.90;;;25.77;;
13743;SDS011;6943;52.368;9.966;2023-02-10T05:13:37;45.43;;;25.90;;
13743;SDS011;6943;52.368;9.966;2023-02-10T05:16:03;39.20;;;26.20;;
13743;SDS011;6943;52.368;9.966;2023-02-10T05:18:29;37.50;;;23.47;;
13743;SDS011;6943;52.368;9.966;2023-02-10T05:20:56;39.83;;;25.27;;
13743;SDS011;6943;52.368;9.966;2023-02-10T05:23:22;42.93;;;25.67;;
13743;SDS011;6943;52.368;9.966;2023-02-10T05:25:47;45.33;;;26.53;;
13743;SDS011;6943;52.368;9.966;2023-02-10T05:28:13;41.33;;;25.10;;
13743;SDS011;6943;52.368;9.966;2023-02-10T05:30:39;39.90;;;24.23;;
13743;SDS011;6943;52.368;9.966;2023-02-10T05:33:05;39.33;;;23.93;;
13743;SDS011;6943;52.368;9.966;2023-02-10T05:35:30;33.47;;;22.23;;
13743;SDS011;6943;52.368;9.966;2023-02-10T05:37:56;37.57;;;23.40;;
13743;SDS011;6943;52.368;9.966;2023-02-10T05:40:21;37.20;;;25.00;;
13743;SDS011;6943;52.368;9.966;2023-02-10T05:42:47;33.63;;;22.90;;
13743;SDS011;6943;52.368;9.966;2023-02-10T05:45:13;37.37;;;23.80;;
13743;SDS011;6943;52.368;9.966;2023-02-10T05:47:39;36.37;;;23.87;;
13743;SDS011;6943;52.368;9.966;2023-02-10T05:50:04;43.80;;;24.27;;
13743;SDS011;6943;52.368;9.966;2023-02-10T05:52:30;38.37;;;23.50;;
13743;SDS011;6943;52.368;9.966;2023-02-10T05:54:56;40.00;;;24.37;;
13743;SDS011;6943;52.368;9.966;2023-02-10T05:57:21;36.90;;;23.47;;
13743;SDS011;6943;52.368;9.966;2023-02-10T05:59:47;36.67;;;23.53;;
13743;SDS011;6943;52.368;9.966;2023-02-10T06:02:12;35.23;;;23.00;;
13743;SDS011;6943;52.368;9.966;2023-02-10T06:04:38;39.50;;;24.40;;
13743;SDS011;6943;52.368;9.966;2023-02-10T06:07:03;34.17;;;22.63;;
13743;SDS011;6943;52.368;9.966;2023-02-10T06:09:29;38.50;;;24.10;;
13743;SDS011;6943;52.368;9.966;2023-02-10T06:11:55;39.23;;;23.17;;
13743;SDS011;6943;52.368;9.966;2023-02-10T06:14:20;36.70;;;24.37;;
13743;SDS011;6943;52.368;9.966;2023-02-10T06:16:46;37.13;;;22.93;;
13743;SDS011;6943;52.368;9.966;2023-02-10T06:19:12;38.80;;;22.97;;
13743;SDS011;6943;52.368;9.966;2023-02-10T06:21:37;35.63;;;22.43;;
13743;SDS011;6943;52.368;9.966;2023-02-10T06:24:03;38.73;;;22.80;;
13743;SDS011;6943;52.368;9.966;2023-02-10T06:26:28;41.57;;;23.17;;
13743;SDS011;6943;52.368;9.966;2023-02-10T06:28:54;33.83;;;22.30;;
13743;SDS011;6943;52.368;9.966;2023-02-10T06:31:21;38.83;;;23.50;;
13743;SDS011;6943;52.368;9.966;2023-02-10T06:33:46;41.60;;;23.77;;
13743;SDS011;6943;52.368;9.966;2023-02-10T06:36:12;37.90;;;21.70;;
13743;SDS011;6943;52.368;9.966;2023-02-10T06:38:37;35.60;;;22.70;;
13743;SDS011;6943;52.368;9.966;2023-02-10T06:41:03;36.33;;;22.73;;
13743;SDS011;6943;52.368;9.966;2023-02-10T06:43:30;39.77;;;23.43;;
13743;SDS011;6943;52.368;9.966;2023-02-10T06:45:55;38.43;;;23.70;;
13743;SDS011;6943;52.368;9.966;2023-02-10T06:48:21;34.03;;;22.37;;
13743;SDS011;6943;52.368;9.966;2023-02-10T06:50:46;43.13;;;22.80;;
13743;SDS011;6943;52.368;9.966;2023-02-10T06:53:12;42.40;;;24.17;;
13743;SDS011;6943;52.368;9.966;2023-02-10T06:55:38;38.83;;;22.83;;
13743;SDS011;6943;52.368;9.966;2023-02-10T06:58:04;40.60;;;23.83;;
13743;SDS011;6943;52.368;9.966;2023-02-10T07:00:29;43.77;;;22.87;;
13743;SDS011;6943;52.368;9.966;2023-02-10T07:02:57;37.00;;;22.33;;
13743;SDS011;6943;52.368;9.966;2023-02-10T07:05:23;36.53;;;23.30;;
13743;SDS011;6943;52.368;9.966;2023-02-10T07:07:49;40.10;;;22.57;;
13743;SDS011;6943;52.368;9.966;2023-02-10T07:10:15;37.87;;;23.40;;
13743;SDS011;6943;52.368;9.966;2023-02-10T07:12:42;41.83;;;22.80;;
13743;SDS011;6943;52.368;9.966;2023-02-10T07:15:07;35.17;;;23.60;;
13743;SDS011;6943;52.368;9.966;2023-02-10T07:17:33;37.73;;;23.00;;
13743;SDS011;6943;52.368;9.966;2023-02-10T07:20:00;38.87;;;21.83;;
13743;SDS011;6943;52.368;9.966;2023-02-10T07:22:26;38.77;;;22.53;;
13743;SDS011;6943;52.368;9.966;2023-02-10T07:24:51;42.50;;;23.73;;
13743;SDS011;6943;52.368;9.966;2023-02-10T07:27:17;41.70;;;23.10;;
13743;SDS011;6943;52.368;9.966;2023-02-10T07:29:42;36.90;;;23.63;;
13743;SDS011;6943;52.368;9.966;2023-02-10T07:32:08;36.47;;;23.13;;
13743;SDS011;6943;52.368;9.966;2023-02-10T07:34:33;40.30;;;22.93;;
13743;SDS011;6943;52.368;9.966;2023-02-10T07:37:00;37.00;;;23.07;;
13743;SDS011;6943;52.368;9.966;2023-02-10T07:39:26;37.10;;;22.67;;
13743;SDS011;6943;52.368;9.966;2023-02-10T07:41:52;37.03;;;22.83;;
13743;SDS011;6943;52.368;9.966;2023-02-10T07:44:18;35.40;;;22.90;;
13743;SDS011;6943;52.368;9.966;2023-02-10T07:46:45;37.93;;;22.80;;
13743;SDS011;6943;52.368;9.966;2023-02-10T07:49:11;36.57;;;23.47;;
13743;SDS011;6943;52.368;9.966;2023-02-10T07:51:37;40.20;;;22.80;;
13743;SDS011;6943;52.368;9.966;2023-02-10T07:54:02;41.57;;;23.73;;
13743;SDS011;6943;52.368;9.966;2023-02-10T07:56:28;41.73;;;23.87;;
13743;SDS011;6943;52.368;9.966;2023-02-10T07:58:53;37.10;;;23.07;;
13743;SDS011;6943;52.368;9.966;2023-02-10T08:01:19;43.70;;;25.10;;
13743;SDS011;6943;52.368;9.966;2023-02-10T08:03:44;37.67;;;22.40;;
13743;SDS011;6943;52.368;9.966;2023-02-10T08:06:10;37.17;;;23.43;;
13743;SDS011;6943;52.368;9.966;2023-02-10T08:08:35;38.20;;;23.47;;
13743;SDS011;6943;52.368;9.966;2023-02-10T08:11:04;43.77;;;25.00;;
13743;SDS011;6943;52.368;9.966;2023-02-10T08:13:31;38.80;;;23.40;;
13743;SDS011;6943;52.368;9.966;2023-02-10T08:15:57;40.57;;;23.80;;
13743;SDS011;6943;52.368;9.966;2023-02-10T08:18:22;35.20;;;22.23;;
13743;SDS011;6943;52.368;9.966;2023-02-10T08:20:48;39.87;;;23.87;;
13743;SDS011;6943;52.368;9.966;2023-02-10T08:23:14;37.57;;;22.83;;
13743;SDS011;6943;52.368;9.966;2023-02-10T08:25:41;34.97;;;24.27;;
13743;SDS011;6943;52.368;9.966;2023-02-10T08:28:07;40.03;;;24.90;;
13743;SDS011;6943;52.368;9.966;2023-02-10T08:30:32;38.03;;;22.93;;
13743;SDS011;6943;52.368;9.966;2023-02-10T08:32:58;42.23;;;22.40;;
13743;SDS011;6943;52.368;9.966;2023-02-10T08:35:24;35.53;;;23.73;;
13743;SDS011;6943;52.368;9.966;2023-02-10T08:37:49;35.33;;;23.17;;
13743;SDS011;6943;52.368;9.966;2023-02-10T08:40:15;36.87;;;24.23;;
13743;SDS011;6943;52.368;9.966;2023-02-10T08:42:40;38.90;;;23.97;;
13743;SDS011;6943;52.368;9.966;2023-02-10T08:45:07;36.77;;;23.50;;
13743;SDS011;6943;52.368;9.966;2023-02-10T08:47:33;36.27;;;23.93;;
13743;SDS011;6943;52.368;9.966;2023-02-10T08:49:59;39.20;;;24.80;;
13743;SDS011;6943;52.368;9.966;2023-02-10T08:52:25;37.73;;;24.03;;
13743;SDS011;6943;52.368;9.966;2023-02-10T08:54:50;38.80;;;26.20;;
13743;SDS011;6943;52.368;9.966;2023-02-10T08:57:16;38.90;;;25.10;;
13743;SDS011;6943;52.368;9.966;2023-02-10T08:59:42;42.13;;;25.23;;
13743;SDS011;6943;52.368;9.966;2023-02-10T09:02:09;38.93;;;25.33;;
13743;SDS011;6943;52.368;9.966;2023-02-10T09:04:38;39.30;;;26.07;;
13743;SDS011;6943;52.368;9.966;2023-02-10T09:07:04;45.40;;;25.53;;
13743;SDS011;6943;52.368;9.966;2023-02-10T09:09:29;41.97;;;25.47;;
13743;SDS011;6943;52.368;9.966;2023-02-10T09:11:55;36.03;;;24.47;;
13743;SDS011;6943;52.368;9.966;2023-02-10T09:14:21;36.93;;;24.87;;
13743;SDS011;6943;52.368;9.966;2023-02-10T09:16:46;36.90;;;26.17;;
13743;SDS011;6943;52.368;9.966;2023-02-10T09:19:12;42.77;;;27.13;;
13743;SDS011;6943;52.368;9.966;2023-02-10T09:21:37;45.97;;;26.63;;
13743;SDS011;6943;52.368;9.966;2023-02-10T09:24:03;39.17;;;26.30;;
13743;SDS011;6943;52.368;9.966;2023-02-10T09:26:28;38.80;;;25.97;;
13743;SDS011;6943;52.368;9.966;2023-02-10T09:28:54;38.73;;;26.50;;
13743;SDS011;6943;52.368;9.966;2023-02-10T09:31:20;40.47;;;27.27;;
13743;SDS011;6943;52.368;9.966;2023-02-10T09:33:47;42.43;;;27.73;;
13743;SDS011;6943;52.368;9.966;2023-02-10T09:36:17;44.53;;;27.40;;
13743;SDS011;6943;52.368;9.966;2023-02-10T09:38:43;42.90;;;28.17;;
13743;SDS011;6943;52.368;9.966;2023-02-10T09:44:06;44.50;;;28.73;;
13743;SDS011;6943;52.368;9.966;2023-02-10T09:51:52;46.37;;;28.83;;
13743;SDS011;6943;52.368;9.966;2023-02-10T09:54:21;46.77;;;28.50;;
13743;SDS011;6943;52.368;9.966;2023-02-10T09:56:47;47.67;;;28.17;;
13743;SDS011;6943;52.368;9.966;2023-02-10T09:59:18;48.93;;;28.83;;
13743;SDS011;6943;52.368;9.966;2023-02-10T10:01:51;48.43;;;31.07;;
13743;SDS011;6943;52.368;9.966;2023-02-10T10:04:21;48.27;;;27.80;;
13743;SDS011;6943;52.368;9.966;2023-02-10T10:06:49;49.10;;;31.87;;
13743;SDS011;6943;52.368;9.966;2023-02-10T10:09:30;53.37;;;31.20;;
13743;SDS011;6943;52.368;9.966;2023-02-10T10:12:03;51.83;;;28.73;;
13743;SDS011;6943;52.368;9.966;2023-02-10T10:14:37;52.30;;;29.57;;
13743;SDS011;6943;52.368;9.966;2023-02-10T10:31:15;45.23;;;27.80;;
13743;SDS011;6943;52.368;9.966;2023-02-10T10:33:45;53.93;;;28.63;;
13743;SDS011;6943;52.368;9.966;2023-02-10T10:36:17;47.10;;;27.87;;
13743;SDS011;6943;52.368;9.966;2023-02-10T10:38:56;44.83;;;28.27;;
13743;SDS011;6943;52.368;9.966;2023-02-10T10:41:25;45.87;;;27.77;;
13743;SDS011;6943;52.368;9.966;2023-02-10T10:43:54;49.27;;;27.50;;
13743;SDS011;6943;52.368;9.966;2023-02-10T10:46:23;48.53;;;28.17;;
13743;SDS011;6943;52.368;9.966;2023-02-10T10:48:55;51.97;;;29.07;;
13743;SDS011;6943;52.368;9.966;2023-02-10T10:51:20;52.10;;;29.20;;
13743;SDS011;6943;52.368;9.966;2023-02-10T10:53:48;54.03;;;31.17;;
13743;SDS011;6943;52.368;9.966;2023-02-10T10:59:12;45.80;;;26.57;;
13743;SDS011;6943;52.368;9.966;2023-02-10T11:01:41;49.77;;;27.43;;
13743;SDS011;6943;52.368;9.966;2023-02-10T11:06:48;62.53;;;28.67;;
13743;SDS011;6943;52.368;9.966;2023-02-10T11:09:28;48.10;;;27.90;;
13743;SDS011;6943;52.368;9.966;2023-02-10T11:12:03;53.53;;;28.77;;
13743;SDS011;6943;52.368;9.966;2023-02-10T11:14:35;52.93;;;28.97;;
13743;SDS011;6943;52.368;9.966;2023-02-10T11:17:15;53.20;;;29.30;;
13743;SDS011;6943;52.368;9.966;2023-02-10T11:19:51;53.20;;;29.23;;
13743;SDS011;6943;52.368;9.966;2023-02-10T11:22:25;50.33;;;27.93;;
13743;SDS011;6943;52.368;9.966;2023-02-10T11:24:57;59.27;;;29.33;;
13743;SDS011;6943;52.368;9.966;2023-02-10T11:27:24;50.63;;;27.97;;
13743;SDS011;6943;52.368;9.966;2023-02-10T11:29:52;48.70;;;27.63;;
13743;SDS011;6943;52.368;9.966;2023-02-10T11:32:20;54.77;;;29.73;;
13743;SDS011;6943;52.368;9.966;2023-02-10T11:34:46;51.20;;;28.90;;
13743;SDS011;6943;52.368;9.966;2023-02-10T11:37:21;56.07;;;28.70;;
13743;SDS011;6943;52.368;9.966;2023-02-10T11:39:53;48.10;;;27.57;;
13743;SDS011;6943;52.368;9.966;2023-02-10T11:42:25;52.90;;;28.73;;
13743;SDS011;6943;52.368;9.966;2023-02-10T11:44:57;49.50;;;27.23;;
13743;SDS011;6943;52.368;9.966;2023-02-10T11:47:25;51.07;;;28.33;;
13743;SDS011;6943;52.368;9.966;2023-02-10T11:49:52;51.20;;;27.73;;
13743;SDS011;6943;52.368;9.966;2023-02-10T11:52:19;51.43;;;27.97;;
13743;SDS011;6943;52.368;9.966;2023-02-10T11:54:47;46.50;;;26.13;;
13743;SDS011;6943;52.368;9.966;2023-02-10T11:57:22;51.83;;;27.97;;
13743;SDS011;6943;52.368;9.966;2023-02-10T12:00:24;49.13;;;27.93;;
13743;SDS011;6943;52.368;9.966;2023-02-10T12:05:54;48.07;;;25.70;;
13743;SDS011;6943;52.368;9.966;2023-02-10T12:08:47;47.37;;;26.47;;
13743;SDS011;6943;52.368;9.966;2023-02-10T12:17:28;45.87;;;26.30;;
13743;SDS011;6943;52.368;9.966;2023-02-10T12:23:05;41.73;;;23.67;;
13743;SDS011;6943;52.368;9.966;2023-02-10T12:25:47;40.83;;;23.27;;
13743;SDS011;6943;52.368;9.966;2023-02-10T12:38:56;46.93;;;26.10;;
13743;SDS011;6943;52.368;9.966;2023-02-10T12:46:56;44.57;;;23.73;;
13743;SDS011;6943;52.368;9.966;2023-02-10T12:52:06;45.33;;;23.83;;
13743;SDS011;6943;52.368;9.966;2023-02-10T12:54:41;40.23;;;23.87;;
13743;SDS011;6943;52.368;9.966;2023-02-10T12:57:32;43.23;;;25.50;;
13743;SDS011;6943;52.368;9.966;2023-02-10T13:02:59;37.33;;;21.80;;
13743;SDS011;6943;52.368;9.966;2023-02-10T13:05:28;41.90;;;22.90;;
13743;SDS011;6943;52.368;9.966;2023-02-10T13:08:01;38.80;;;21.73;;
13743;SDS011;6943;52.368;9.966;2023-02-10T13:10:47;39.53;;;22.00;;
13743;SDS011;6943;52.368;9.966;2023-02-10T13:13:17;35.27;;;19.77;;
13743;SDS011;6943;52.368;9.966;2023-02-10T13:15:49;39.67;;;20.70;;
13743;SDS011;6943;52.368;9.966;2023-02-10T13:18:22;39.10;;;21.60;;
13743;SDS011;6943;52.368;9.966;2023-02-10T13:23:48;38.37;;;22.60;;
13743;SDS011;6943;52.368;9.966;2023-02-10T13:32:01;36.33;;;20.77;;
13743;SDS011;6943;52.368;9.966;2023-02-10T13:34:44;33.63;;;21.07;;
13743;SDS011;6943;52.368;9.966;2023-02-10T13:40:16;31.07;;;19.70;;
13743;SDS011;6943;52.368;9.966;2023-02-10T13:42:49;33.77;;;21.13;;
13743;SDS011;6943;52.368;9.966;2023-02-10T13:45:22;35.67;;;20.30;;
13743;SDS011;6943;52.368;9.966;2023-02-10T13:47:51;35.50;;;22.83;;
13743;SDS011;6943;52.368;9.966;2023-02-10T13:50:20;39.60;;;21.83;;
13743;SDS011;6943;52.368;9.966;2023-02-10T13:53:05;30.80;;;21.00;;
13743;SDS011;6943;52.368;9.966;2023-02-10T13:55:51;32.40;;;19.23;;
13743;SDS011;6943;52.368;9.966;2023-02-10T13:58:35;32.50;;;20.57;;
13743;SDS011;6943;52.368;9.966;2023-02-10T14:01:35;36.47;;;20.13;;
13743;SDS011;6943;52.368;9.966;2023-02-10T14:06:44;35.70;;;20.43;;
13743;SDS011;6943;52.368;9.966;2023-02-10T14:11:56;30.27;;;20.07;;
13743;SDS011;6943;52.368;9.966;2023-02-10T14:14:28;34.20;;;21.20;;
13743;SDS011;6943;52.368;9.966;2023-02-10T14:19:39;32.47;;;21.47;;
13743;SDS011;6943;52.368;9.966;2023-02-10T14:22:06;37.63;;;19.97;;
13743;SDS011;6943;52.368;9.966;2023-02-10T14:24:53;35.33;;;20.53;;
13743;SDS011;6943;52.368;9.966;2023-02-10T14:27:23;30.73;;;18.83;;
13743;SDS011;6943;52.368;9.966;2023-02-10T14:29:51;29.00;;;18.33;;
13743;SDS011;6943;52.368;9.966;2023-02-10T14:32:26;30.83;;;19.20;;
13743;SDS011;6943;52.368;9.966;2023-02-10T14:35:03;30.30;;;18.93;;
13743;SDS011;6943;52.368;9.966;2023-02-10T14:37:30;28.60;;;18.63;;
13743;SDS011;6943;52.368;9.966;2023-02-10T14:40:00;31.60;;;18.63;;
13743;SDS011;6943;52.368;9.966;2023-02-10T14:42:29;30.33;;;17.53;;
13743;SDS011;6943;52.368;9.966;2023-02-10T14:44:57;31.57;;;17.83;;
13743;SDS011;6943;52.368;9.966;2023-02-10T14:47:32;28.00;;;16.60;;
13743;SDS011;6943;52.368;9.966;2023-02-10T14:50:00;27.40;;;16.70;;
13743;SDS011;6943;52.368;9.966;2023-02-10T14:52:32;25.90;;;16.40;;
13743;SDS011;6943;52.368;9.966;2023-02-10T14:55:46;27.73;;;16.23;;
13743;SDS011;6943;52.368;9.966;2023-02-10T14:58:13;25.67;;;15.67;;
13743;SDS011;6943;52.368;9.966;2023-02-10T15:00:40;29.17;;;17.23;;
13743;SDS011;6943;52.368;9.966;2023-02-10T15:03:18;23.87;;;15.20;;
13743;SDS011;6943;52.368;9.966;2023-02-10T15:05:47;26.10;;;15.23;;
13743;SDS011;6943;52.368;9.966;2023-02-10T15:08:16;29.13;;;16.33;;
13743;SDS011;6943;52.368;9.966;2023-02-10T15:10:47;24.03;;;15.57;;
13743;SDS011;6943;52.368;9.966;2023-02-10T15:13:14;29.30;;;16.03;;
13743;SDS011;6943;52.368;9.966;2023-02-10T15:15:45;28.73;;;15.33;;
13743;SDS011;6943;52.368;9.966;2023-02-10T15:18:18;24.73;;;14.93;;
13743;SDS011;6943;52.368;9.966;2023-02-10T15:20:52;25.47;;;15.67;;
13743;SDS011;6943;52.368;9.966;2023-02-10T15:23:20;24.30;;;14.90;;
13743;SDS011;6943;52.368;9.966;2023-02-10T15:25:46;24.17;;;14.77;;
13743;SDS011;6943;52.368;9.966;2023-02-10T15:30:56;33.73;;;16.37;;
13743;SDS011;6943;52.368;9.966;2023-02-10T15:33:23;29.60;;;18.33;;
13743;SDS011;6943;52.368;9.966;2023-02-10T15:35:52;25.43;;;13.60;;
13743;SDS011;6943;52.368;9.966;2023-02-10T15:38:40;23.43;;;13.40;;
13743;SDS011;6943;52.368;9.966;2023-02-10T15:46:43;18.93;;;11.60;;
13743;SDS011;6943;52.368;9.966;2023-02-10T15:49:14;20.33;;;11.77;;
13743;SDS011;6943;52.368;9.966;2023-02-10T15:51:43;22.83;;;12.27;;
13743;SDS011;6943;52.368;9.966;2023-02-10T15:54:14;15.73;;;10.73;;
13743;SDS011;6943;52.368;9.966;2023-02-10T15:56:42;20.20;;;11.57;;
13743;SDS011;6943;52.368;9.966;2023-02-10T15:59:29;17.70;;;10.47;;
13743;SDS011;6943;52.368;9.966;2023-02-10T16:01:55;16.47;;;10.97;;
13743;SDS011;6943;52.368;9.966;2023-02-10T16:04:22;19.10;;;12.10;;
13743;SDS011;6943;52.368;9.966;2023-02-10T16:06:48;20.10;;;11.77;;
13743;SDS011;6943;52.368;9.966;2023-02-10T16:09:14;20.83;;;12.03;;
13743;SDS011;6943;52.368;9.966;2023-02-10T16:11:39;50.17;;;28.40;;
13743;SDS011;6943;52.368;9.966;2023-02-10T16:14:05;18.97;;;11.00;;
13743;SDS011;6943;52.368;9.966;2023-02-10T16:16:30;19.67;;;11.73;;
13743;SDS011;6943;52.368;9.966;2023-02-10T16:18:56;17.53;;;11.27;;
13743;SDS011;6943;52.368;9.966;2023-02-10T16:21:22;20.57;;;11.40;;
13743;SDS011;6943;52.368;9.966;2023-02-10T16:23:48;19.13;;;12.57;;
13743;SDS011;6943;52.368;9.966;2023-02-10T16:26:20;20.40;;;12.20;;
13743;SDS011;6943;52.368;9.966;2023-02-10T16:28:48;18.73;;;11.53;;
13743;SDS011;6943;52.368;9.966;2023-02-10T16:31:14;23.73;;;11.90;;
13743;SDS011;6943;52.368;9.966;2023-02-10T16:33:43;19.23;;;12.13;;
13743;SDS011;6943;52.368;9.966;2023-02-10T16:36:10;24.63;;;13.60;;
13743;SDS011;6943;52.368;9.966;2023-02-10T16:38:41;20.27;;;12.23;;
13743;SDS011;6943;52.368;9.966;2023-02-10T16:41:07;18.97;;;12.13;;